Time;durP1;ratioP1;P1;durP2;ratioP2;P2;SDS_P1;SDS_P2;PMS_P1;PMS_P2;Temp;Humidity;BMP_temperature;BMP_pressure;BME280_temperature;BME280_humidity;BME280_pressure;Samples;Min_cycle;Max_cycle;Signal;HPM_P1;HPM_P2
2022/04/18 00:01:56;;;;;;;1.23;0.82;;;230.70;1536.00;;;;;;5032502;28;20503;-53
2022/04/18 00:04:22;;;;;;;2.33;0.75;;;230.60;1536.00;;;;;;5032435;28;20163;-53
2022/04/18 00:06:48;;;;;;;1.10;0.77;;;230.70;1536.00;;;;;;5032463;28;20036;-52
2022/04/18 00:09:14;;;;;;;1.88;1.25;;;230.70;1536.00;;;;;;5032687;28;20022;-53
2022/04/18 00:11:40;;;;;;;1.52;1.15;;;230.60;1536.00;;;;;;5032237;28;20030;-53
2022/04/18 00:14:06;;;;;;;1.55;0.60;;;230.60;1536.00;;;;;;5032164;28;20345;-54
2022/04/18 00:16:31;;;;;;;2.00;1.52;;;230.60;1561.60;;;;;;5032337;28;20025;-53
2022/04/18 00:18:57;;;;;;;1.27;0.70;;;230.50;1587.20;;;;;;5032319;28;20022;-53
2022/04/18 00:21:23;;;;;;;0.82;0.65;;;230.60;1561.60;;;;;;5032323;28;20026;-52
2022/04/18 00:23:49;;;;;;;0.57;0.57;;;230.50;1561.60;;;;;;5032155;28;20029;-54
2022/04/18 00:26:15;;;;;;;1.17;0.65;;;230.50;1561.60;;;;;;5032059;28;20024;-53
2022/04/18 00:28:41;;;;;;;1.20;0.68;;;230.50;1561.60;;;;;;5032251;28;20021;-54
2022/04/18 00:31:07;;;;;;;1.13;0.65;;;230.40;1561.60;;;;;;5031863;28;20021;-54
2022/04/18 00:33:33;;;;;;;0.55;0.50;;;230.40;1587.20;;;;;;5030789;28;20038;-54
2022/04/18 00:36:00;;;;;;;1.23;0.85;;;230.40;1561.60;;;;;;5031430;28;20060;-53
2022/04/18 00:38:28;;;;;;;1.35;0.70;;;205.70;1587.20;;;;;;5031825;28;20017;-55
2022/04/18 00:40:54;;;;;;;1.70;0.73;;;205.70;1561.60;;;;;;5031805;28;20376;-53
2022/04/18 00:43:38;;;;;;;2.17;0.88;;;205.70;1561.60;;;;;;5031630;28;20143;-53
2022/04/18 00:46:04;;;;;;;1.58;1.00;;;205.70;1561.60;;;;;;5031922;28;20430;-53
2022/04/18 00:48:29;;;;;;;3.20;1.23;;;205.60;1587.20;;;;;;5031495;28;20582;-53
2022/04/18 00:50:55;;;;;;;1.30;0.70;;;205.60;1587.20;;;;;;5031715;28;20021;-53
2022/04/18 00:53:21;;;;;;;1.27;0.93;;;205.60;1587.20;;;;;;5031744;28;20463;-54
2022/04/18 00:55:47;;;;;;;0.45;0.40;;;205.50;1612.80;;;;;;5031479;28;20029;-53
2022/04/18 00:58:14;;;;;;;2.50;0.52;;;205.50;1612.80;;;;;;5031861;28;20026;-52
2022/04/18 01:00:40;;;;;;;3.58;0.82;;;205.40;1587.20;;;;;;5031236;28;20025;-53
2022/04/18 01:03:06;;;;;;;2.45;1.10;;;205.40;1587.20;;;;;;5031603;28;20036;-53
2022/04/18 01:05:32;;;;;;;1.08;0.57;;;205.50;1612.80;;;;;;5031486;28;20474;-53
2022/04/18 01:07:59;;;;;;;0.93;0.63;;;205.40;1612.80;;;;;;5031251;28;20091;-53
2022/04/18 01:10:24;;;;;;;0.73;0.70;;;205.40;1612.80;;;;;;5031497;28;20428;-54
2022/04/18 01:12:50;;;;;;;1.10;0.57;;;205.40;1612.80;;;;;;5031329;28;20029;-52
2022/04/18 01:15:16;;;;;;;2.55;1.92;;;205.30;1638.40;;;;;;5031305;28;20033;-53
2022/04/18 01:17:41;;;;;;;1.65;0.77;;;205.30;1638.40;;;;;;5031289;28;20388;-53
2022/04/18 01:20:08;;;;;;;0.88;0.70;;;205.40;1638.40;;;;;;5031082;28;20025;-53
2022/04/18 01:22:36;;;;;;;0.52;0.28;;;205.40;1638.40;;;;;;5031016;28;20022;-52
2022/04/18 01:30:30;;;;;;;1.50;0.88;;;205.10;1638.40;;;;;;5030930;28;20059;-52
2022/04/18 01:32:56;;;;;;;1.90;1.00;;;205.10;1664.00;;;;;;5030671;28;20446;-53
2022/04/18 01:35:22;;;;;;;0.93;0.30;;;205.00;1664.00;;;;;;5030754;28;20613;-53
2022/04/18 01:37:47;;;;;;;3.38;1.13;;;205.00;1664.00;;;;;;5030177;28;20018;-51
2022/04/18 01:40:13;;;;;;;0.95;0.85;;;204.90;1664.00;;;;;;5030773;28;20499;-52
2022/04/18 01:42:39;;;;;;;1.08;0.60;;;204.90;1664.00;;;;;;5030480;28;20017;-52
2022/04/18 01:45:05;;;;;;;1.23;0.85;;;204.80;1689.60;;;;;;5030885;28;20022;-52
2022/04/18 01:47:31;;;;;;;5.82;3.30;;;204.80;1689.60;;;;;;5030592;28;20032;-52
2022/04/18 01:49:57;;;;;;;0.22;0.22;;;180.10;1664.00;;;;;;5030445;28;20104;-53
2022/04/18 01:52:22;;;;;;;1.40;1.17;;;180.10;1664.00;;;;;;5030422;28;20384;-53
2022/04/18 01:54:48;;;;;;;2.08;0.70;;;180.10;1664.00;;;;;;5030531;28;20067;-53
2022/04/18 01:57:14;;;;;;;1.13;0.70;;;204.80;1664.00;;;;;;5030655;28;20075;-52
2022/04/18 01:59:42;;;;;;;0.57;0.52;;;180.10;1664.00;;;;;;5030248;28;20541;-52
2022/04/18 02:02:08;;;;;;;1.63;1.05;;;204.80;1689.60;;;;;;5030438;28;20734;-52
2022/04/18 02:04:34;;;;;;;1.20;0.93;;;204.80;1689.60;;;;;;5030296;28;20121;-53
2022/04/18 02:07:00;;;;;;;0.98;0.75;;;204.80;1689.60;;;;;;5030084;28;20439;-53
2022/04/18 02:09:26;;;;;;;0.50;0.35;;;180.10;1689.60;;;;;;5030321;28;20080;-53
2022/04/18 02:11:51;;;;;;;2.55;0.65;;;180.10;1689.60;;;;;;5030426;28;20029;-53
2022/04/18 02:14:17;;;;;;;0.95;0.22;;;180.10;1689.60;;;;;;5030204;28;20052;-53
2022/04/18 02:16:43;;;;;;;1.40;0.65;;;180.10;1689.60;;;;;;5030270;28;20076;-53
2022/04/18 02:19:09;;;;;;;0.93;0.57;;;180.00;1715.20;;;;;;5030142;28;20049;-53
2022/04/18 02:21:34;;;;;;;0.63;0.55;;;180.00;1740.80;;;;;;5030223;28;20452;-52
2022/04/18 02:24:00;;;;;;;0.20;0.20;;;179.80;1715.20;;;;;;5030020;28;20033;-53
2022/04/18 02:26:26;;;;;;;1.05;0.85;;;179.70;1740.80;;;;;;5030289;28;20456;-54
2022/04/18 02:28:51;;;;;;;4.07;0.60;;;179.80;1715.20;;;;;;5030302;28;20040;-53
2022/04/18 02:31:17;;;;;;;0.90;0.55;;;179.80;1715.20;;;;;;5030026;28;20480;-53
2022/04/18 02:33:43;;;;;;;0.73;0.60;;;179.70;1715.20;;;;;;5030010;28;20092;-53
2022/04/18 02:36:09;;;;;;;1.25;0.80;;;179.70;1740.80;;;;;;5029754;28;20045;-53
2022/04/18 02:38:34;;;;;;;0.90;0.73;;;179.60;1715.20;;;;;;5029914;28;20116;-55
2022/04/18 02:41:00;;;;;;;1.08;0.70;;;179.70;1740.80;;;;;;5029866;28;20041;-52
2022/04/18 02:43:26;;;;;;;1.45;1.00;;;179.70;1740.80;;;;;;5030259;28;20036;-55
2022/04/18 02:45:52;;;;;;;0.93;0.55;;;179.60;1740.80;;;;;;5030258;28;20042;-56
2022/04/18 02:48:17;;;;;;;14.65;10.30;;;179.70;1740.80;;;;;;5030028;28;20025;-55
2022/04/18 02:50:43;;;;;;;1.38;1.10;;;179.60;1740.80;;;;;;5034158;28;20121;-55
2022/04/18 02:53:09;;;;;;;2.33;1.70;;;179.70;1740.80;;;;;;5033628;28;20026;-55
2022/04/18 02:55:35;;;;;;;1.40;0.50;;;179.60;1740.80;;;;;;5034029;28;20069;-56
2022/04/18 02:58:01;;;;;;;1.13;0.80;;;179.50;1766.40;;;;;;5033655;28;20025;-55
2022/04/18 03:00:26;;;;;;;0.68;0.68;;;179.50;1740.80;;;;;;5033533;28;20087;-54
2022/04/18 03:02:52;;;;;;;1.10;0.70;;;179.50;1740.80;;;;;;5033634;28;20026;-55
2022/04/18 03:05:18;;;;;;;0.60;0.60;;;179.50;1740.80;;;;;;5033692;28;20435;-55
2022/04/18 03:07:43;;;;;;;0.73;0.35;;;179.50;1740.80;;;;;;5033692;28;20026;-54
2022/04/18 03:10:09;;;;;;;0.65;0.50;;;179.50;1766.40;;;;;;5033331;28;20163;-54
2022/04/18 03:12:35;;;;;;;0.82;0.65;;;179.50;1766.40;;;;;;5033782;28;20026;-55
2022/04/18 03:15:01;;;;;;;1.15;0.68;;;179.50;1766.40;;;;;;5033458;28;20048;-54
2022/04/18 03:17:27;;;;;;;0.75;0.60;;;179.40;1766.40;;;;;;5033366;28;20022;-55
2022/04/18 03:19:52;;;;;;;1.42;0.73;;;179.30;1792.00;;;;;;5033519;28;20026;-55
2022/04/18 03:22:19;;;;;;;0.85;0.57;;;179.20;1817.60;;;;;;5033274;28;20026;-55
2022/04/18 03:24:45;;;;;;;0.88;0.65;;;154.50;1792.00;;;;;;5033314;28;20029;-55
2022/04/18 03:27:11;;;;;;;0.70;0.40;;;154.50;1817.60;;;;;;5033336;28;20092;-54
2022/04/18 03:29:37;;;;;;;3.13;2.55;;;179.20;1817.60;;;;;;5033135;28;20040;-55
2022/04/18 03:32:04;;;;;;;3.65;1.60;;;179.20;1792.00;;;;;;5033083;28;20056;-56
2022/04/18 03:34:30;;;;;;;1.42;1.00;;;179.30;1792.00;;;;;;5032633;28;20191;-53
2022/04/18 03:39:54;;;;;;;1.52;1.13;;;179.30;1817.60;;;;;;5033134;28;20036;-55
2022/04/18 03:42:31;;;;;;;1.10;1.00;;;179.40;1792.00;;;;;;5032966;28;20033;-54
2022/04/18 03:45:01;;;;;;;1.20;0.60;;;179.40;1817.60;;;;;;5032961;28;20026;-53
2022/04/18 03:47:27;;;;;;;0.80;0.80;;;179.20;1843.20;;;;;;5032787;28;20065;-54
2022/04/18 03:49:54;;;;;;;1.63;1.20;;;154.50;1843.20;;;;;;5032874;28;20076;-53
2022/04/18 03:52:20;;;;;;;1.45;0.57;;;154.50;1817.60;;;;;;5032216;28;20037;-54
2022/04/18 03:54:46;;;;;;;1.40;0.90;;;154.50;1817.60;;;;;;5032407;28;20041;-51
2022/04/18 03:57:14;;;;;;;0.45;0.40;;;154.50;1817.60;;;;;;5032504;28;20415;-52
2022/04/18 03:59:40;;;;;;;1.13;0.68;;;154.50;1817.60;;;;;;5031782;28;20029;-50
2022/04/18 04:02:06;;;;;;;1.02;0.93;;;154.50;1843.20;;;;;;5032056;28;20052;-52
2022/04/18 04:04:32;;;;;;;6.25;3.70;;;154.40;1843.20;;;;;;5032105;28;20037;-53
2022/04/18 04:06:58;;;;;;;1.50;0.95;;;154.40;1843.20;;;;;;5032250;28;20120;-52
2022/04/18 04:09:24;;;;;;;1.60;1.42;;;154.50;1868.80;;;;;;5031645;28;20085;-52
2022/04/18 04:11:51;;;;;;;1.63;0.98;;;154.50;1843.20;;;;;;5031014;28;20406;-52
2022/04/18 04:14:17;;;;;;;1.35;1.00;;;179.20;1817.60;;;;;;5030879;28;20033;-53
2022/04/18 04:16:43;;;;;;;0.63;0.60;;;179.20;1817.60;;;;;;5031190;28;20037;-52
2022/04/18 04:19:08;;;;;;;1.33;0.77;;;179.20;1843.20;;;;;;5030961;28;20025;-53
2022/04/18 04:21:35;;;;;;;1.50;0.68;;;179.20;1843.20;;;;;;5031004;28;20061;-52
2022/04/18 04:24:02;;;;;;;2.25;1.70;;;179.30;1817.60;;;;;;5030985;28;20040;-53
2022/04/18 04:26:27;;;;;;;1.13;0.70;;;179.50;1792.00;;;;;;5030610;28;20112;-53
2022/04/18 04:28:53;;;;;;;2.58;1.30;;;179.70;1792.00;;;;;;5030688;28;20076;-52
2022/04/18 04:31:19;;;;;;;4.93;1.30;;;179.80;1766.40;;;;;;5031715;28;20072;-53
2022/04/18 04:33:45;;;;;;;5.28;2.53;;;205.10;1740.80;;;;;;5031941;28;20026;-54
2022/04/18 04:36:12;;;;;;;2.80;1.65;;;231.30;1612.80;;;;;;5031691;28;20042;-54
2022/04/18 04:38:38;;;;;;;1.33;1.05;;;281.70;1536.00;;;;;;5031630;28;20025;-54
2022/04/18 04:41:04;;;;;;;0.93;0.75;;;307.80;1484.80;;;;;;5031889;28;20087;-54
2022/04/18 04:43:29;;;;;;;0.82;0.55;;;281.60;1536.00;;;;;;5031891;28;20040;-53
2022/04/18 04:45:56;;;;;;;0.63;0.60;;;256.40;1536.00;;;;;;5031820;28;20052;-54
2022/04/18 04:48:23;;;;;;;2.63;1.20;;;256.10;1561.60;;;;;;5031742;28;20022;-53
2022/04/18 04:50:49;;;;;;;2.33;1.40;;;231.20;1587.20;;;;;;5030416;28;20388;-53
2022/04/18 04:53:15;;;;;;;2.13;1.40;;;256.20;1536.00;;;;;;5031668;28;20021;-54
2022/04/18 04:55:41;;;;;;;1.67;1.20;;;308.10;1433.60;;;;;;5031413;28;20075;-53
2022/04/18 04:58:09;;;;;;;2.20;1.42;;;409.70;1254.40;;;;;;5031587;28;20032;-54
2022/04/18 05:00:35;;;;;;;1.65;1.10;;;435.60;1177.60;;;;;;5031346;28;20113;-55
2022/04/18 05:03:01;;;;;;;2.78;1.50;;;461.50;1126.40;;;;;;5031107;28;20486;-53
2022/04/18 05:05:27;;;;;;;2.35;1.55;;;486.40;1100.80;;;;;;5031146;28;20112;-54
2022/04/18 05:07:55;;;;;;;3.17;1.83;;;487.20;1049.60;;;;;;5031625;28;20477;-55
2022/04/18 05:10:21;;;;;;;2.03;1.40;;;486.80;1049.60;;;;;;5031321;28;20033;-55
2022/04/18 05:12:46;;;;;;;1.40;1.30;;;486.60;1075.20;;;;;;5030226;28;20361;-55
2022/04/18 05:15:12;;;;;;;1.50;1.40;;;487.00;1049.60;;;;;;5031318;28;20045;-53
2022/04/18 05:17:38;;;;;;;4.55;2.22;;;512.10;1024.00;;;;;;5031220;28;20100;-55
2022/04/18 05:20:04;;;;;;;2.25;1.67;;;537.70;998.40;;;;;;5031323;28;20080;-56
2022/04/18 05:22:31;;;;;;;1.35;1.23;;;538.00;998.40;;;;;;5030940;28;20030;-55
2022/04/18 05:24:57;;;;;;;2.30;1.50;;;563.40;972.80;;;;;;5030934;28;20045;-55
2022/04/18 05:27:23;;;;;;;1.35;1.10;;;537.60;998.40;;;;;;5031178;28;20103;-56
2022/04/18 05:29:49;;;;;;;4.75;1.90;;;537.90;998.40;;;;;;5030695;28;20032;-56
2022/04/18 05:32:15;;;;;;;2.10;1.70;;;563.50;998.40;;;;;;5031259;28;20112;-56
2022/04/18 05:34:42;;;;;;;2.25;1.63;;;564.00;947.20;;;;;;5030552;28;20120;-57
2022/04/18 05:37:07;;;;;;;2.78;1.73;;;589.70;896.00;;;;;;5030688;28;20030;-56
2022/04/18 05:39:34;;;;;;;2.33;2.13;;;564.00;921.60;;;;;;5030863;28;20530;-56
2022/04/18 05:41:59;;;;;;;2.88;1.90;;;589.50;896.00;;;;;;5030707;28;20026;-55
2022/04/18 05:44:25;;;;;;;2.15;1.92;;;589.70;870.40;;;;;;5030948;28;20369;-56
2022/04/18 05:46:51;;;;;;;3.33;1.98;;;615.10;844.80;;;;;;5030826;28;20024;-56
2022/04/18 05:49:17;;;;;;;3.60;2.83;;;615.30;819.20;;;;;;5030631;28;20033;-57
2022/04/18 05:51:43;;;;;;;3.08;2.20;;;614.60;844.80;;;;;;5030635;28;20033;-54
2022/04/18 05:54:10;;;;;;;2.97;2.35;;;589.40;870.40;;;;;;5030353;28;20029;-56
2022/04/18 05:56:36;;;;;;;2.60;2.05;;;614.40;870.40;;;;;;5030725;28;20479;-56
2022/04/18 05:59:02;;;;;;;5.68;4.07;;;615.10;844.80;;;;;;5030675;28;20029;-56
2022/04/18 06:01:31;;;;;;;4.00;3.08;;;615.00;844.80;;;;;;5030236;28;20029;-55
2022/04/18 06:03:57;;;;;;;3.17;1.85;;;615.30;819.20;;;;;;5029954;28;20101;-55
2022/04/18 06:06:23;;;;;;;1.88;1.58;;;538.10;947.20;;;;;;5030324;28;20034;-56
2022/04/18 06:08:48;;;;;;;2.65;2.15;;;538.20;947.20;;;;;;5030270;28;20033;-57
2022/04/18 06:11:14;;;;;;;2.65;2.45;;;563.60;947.20;;;;;;5030864;28;20141;-57
2022/04/18 06:13:40;;;;;;;2.90;2.60;;;614.40;896.00;;;;;;5030353;28;20083;-57
2022/04/18 06:16:06;;;;;;;3.25;2.47;;;640.00;844.80;;;;;;5030381;28;20388;-57
2022/04/18 06:18:33;;;;;;;3.13;2.65;;;640.70;793.60;;;;;;5030289;28;20108;-57
2022/04/18 06:20:59;;;;;;;4.03;3.13;;;666.30;793.60;;;;;;5030346;28;20029;-57
2022/04/18 06:23:24;;;;;;;3.42;3.13;;;691.50;768.00;;;;;;5029981;28;20068;-57
2022/04/18 06:25:50;;;;;;;4.70;4.15;;;691.80;768.00;;;;;;5030174;28;20468;-57
2022/04/18 06:28:16;;;;;;;4.05;3.42;;;666.50;768.00;;;;;;5030412;28;20018;-56
2022/04/18 06:30:42;;;;;;;3.80;3.50;;;691.20;768.00;;;;;;5030446;28;20055;-57
2022/04/18 06:33:12;;;;;;;4.47;4.07;;;691.30;768.00;;;;;;5029998;28;20029;-57
2022/04/18 06:35:38;;;;;;;3.13;2.83;;;691.90;768.00;;;;;;5029893;28;20057;-58
2022/04/18 06:38:05;;;;;;;2.67;1.95;;;640.60;793.60;;;;;;5029385;28;20094;-56
2022/04/18 06:40:31;;;;;;;3.20;2.35;;;563.90;921.60;;;;;;5030272;28;20056;-55
2022/04/18 06:42:57;;;;;;;3.90;3.60;;;589.70;870.40;;;;;;5030152;28;20029;-57
2022/04/18 06:45:24;;;;;;;4.43;4.13;;;640.60;819.20;;;;;;5030073;28;20519;-57
2022/04/18 06:47:50;;;;;;;4.05;3.67;;;640.80;793.60;;;;;;5029860;28;20432;-57
2022/04/18 06:50:16;;;;;;;3.95;3.55;;;691.50;768.00;;;;;;5030107;28;20112;-57
2022/04/18 06:52:46;;;;;;;7.82;5.55;;;717.30;768.00;;;;;;5029745;28;20033;-57
2022/04/18 06:55:11;;;;;;;4.68;3.53;;;691.80;768.00;;;;;;5029724;28;20021;-57
2022/04/18 06:57:38;;;;;;;5.10;2.67;;;640.20;793.60;;;;;;5029695;28;20042;-56
2022/04/18 07:00:06;;;;;;;3.45;2.05;;;564.10;896.00;;;;;;5029872;28;20025;-56
2022/04/18 07:02:32;;;;;;;4.18;3.78;;;537.70;972.80;;;;;;5029498;28;20034;-61
2022/04/18 07:04:58;;;;;;;6.75;4.75;;;563.90;947.20;;;;;;5029591;28;20030;-60
2022/04/18 07:07:30;;;;;;;3.20;2.03;;;614.80;870.40;;;;;;5029844;28;20029;-57
2022/04/18 07:09:55;;;;;;;6.93;3.03;;;615.20;844.80;;;;;;5030026;28;20056;-58
2022/04/18 07:12:22;;;;;;;8.65;4.15;;;614.70;870.40;;;;;;5029794;28;20021;-58
2022/04/18 07:14:48;;;;;;;3.90;2.40;;;589.40;896.00;;;;;;5029646;28;20041;-61
2022/04/18 07:17:14;;;;;;;5.07;4.15;;;563.90;921.60;;;;;;5030105;28;20051;-57
2022/04/18 07:19:40;;;;;;;3.65;3.30;;;563.50;947.20;;;;;;5029828;28;20397;-60
2022/04/18 07:22:06;;;;;;;4.43;4.03;;;589.30;921.60;;;;;;5029575;28;20495;-58
2022/04/18 07:24:32;;;;;;;3.50;2.90;;;666.30;844.80;;;;;;5029929;28;20036;-59
2022/04/18 07:27:01;;;;;;;3.25;2.95;;;691.40;768.00;;;;;;5029654;28;20017;-60
2022/04/18 07:29:30;;;;;;;6.82;5.40;;;666.10;819.20;;;;;;5029834;28;20038;-58
2022/04/18 07:31:55;;;;;;;3.92;3.42;;;691.80;768.00;;;;;;5029834;28;20018;-59
2022/04/18 07:34:21;;;;;;;5.03;4.53;;;717.40;768.00;;;;;;5029479;28;20060;-59
2022/04/18 07:36:47;;;;;;;3.95;3.63;;;742.90;768.00;;;;;;5033155;28;20037;-58
2022/04/18 07:39:13;;;;;;;4.32;3.92;;;742.90;768.00;;;;;;5033200;28;20156;-59
2022/04/18 07:41:39;;;;;;;4.53;4.13;;;768.30;742.40;;;;;;5033358;28;20033;-59
2022/04/18 07:44:05;;;;;;;3.88;3.58;;;768.80;742.40;;;;;;5033092;28;20357;-60
2022/04/18 07:46:32;;;;;;;4.00;3.70;;;794.20;742.40;;;;;;5032870;28;20030;-57
2022/04/18 07:48:59;;;;;;;4.10;3.80;;;793.60;768.00;;;;;;5032758;28;20501;-57
2022/04/18 07:51:42;;;;;;;4.60;4.30;;;819.30;742.40;;;;;;5032958;28;20022;-57
2022/04/18 07:54:12;;;;;;;;;;;793.80;768.00;;;;;;5033269;28;20073;-58
2022/04/18 07:56:38;;;;;;;3.95;3.65;;;794.50;742.40;;;;;;5032471;28;19913;-57
2022/04/18 07:59:05;;;;;;;4.32;3.95;;;793.70;768.00;;;;;;5032987;28;20395;-58
2022/04/18 08:01:31;;;;;;;4.18;3.78;;;794.50;742.40;;;;;;5032636;28;20060;-57
2022/04/18 08:04:00;;;;;;;5.38;4.97;;;819.20;742.40;;;;;;5032410;28;20437;-58
2022/04/18 08:06:27;;;;;;;5.55;4.82;;;819.80;716.80;;;;;;5032610;28;20120;-58
2022/04/18 08:08:52;;;;;;;4.82;4.43;;;819.80;691.20;;;;;;5032720;28;20018;-61
2022/04/18 08:11:20;;;;;;;4.63;4.25;;;844.90;742.40;;;;;;5032538;28;20431;-57
2022/04/18 08:13:47;;;;;;;3.90;3.60;;;845.60;716.80;;;;;;5032729;28;20576;-62
2022/04/18 08:16:13;;;;;;;4.70;3.90;;;896.00;640.00;;;;;;5032622;28;20048;-58
2022/04/18 08:18:44;;;;;;;18.15;15.80;;;845.00;716.80;;;;;;5032204;28;20022;-59
2022/04/18 08:21:10;;;;;;;5.75;5.28;;;820.10;716.80;;;;;;5032404;28;20076;-58
2022/04/18 08:23:36;;;;;;;5.20;4.80;;;870.90;665.60;;;;;;5032449;28;20172;-57
2022/04/18 08:26:04;;;;;;;4.47;4.07;;;844.90;716.80;;;;;;5032273;28;20499;-58
2022/04/18 08:28:31;;;;;;;3.97;3.65;;;845.60;716.80;;;;;;5032124;28;20025;-58
2022/04/18 08:30:57;;;;;;;2.60;2.15;;;819.60;742.40;;;;;;5032196;28;20030;-57
2022/04/18 08:33:23;;;;;;;4.50;2.97;;;717.70;793.60;;;;;;5032121;28;20036;-57
2022/04/18 08:35:49;;;;;;;3.58;3.00;;;640.40;844.80;;;;;;5031821;28;20061;-57
2022/04/18 08:38:15;;;;;;;3.05;2.20;;;615.00;870.40;;;;;;5032143;28;20506;-57
2022/04/18 08:40:44;;;;;;;6.03;4.20;;;614.80;896.00;;;;;;5031851;28;20030;-57
2022/04/18 08:43:11;;;;;;;5.40;3.85;;;589.00;947.20;;;;;;5031794;28;20025;-56
2022/04/18 08:45:38;;;;;;;5.53;4.25;;;563.60;998.40;;;;;;5031939;28;20534;-57
2022/04/18 08:53:35;;;;;;;5.00;3.20;;;537.70;1075.20;;;;;;5033384;28;20064;-57
2022/04/18 08:56:01;;;;;;;3.75;2.28;;;512.80;1024.00;;;;;;5032442;28;20069;-56
2022/04/18 08:58:27;;;;;;;2.55;2.00;;;486.90;1100.80;;;;;;5030251;28;20433;-57
2022/04/18 09:00:55;;;;;;;5.53;2.05;;;512.40;1049.60;;;;;;5032099;28;20519;-56
2022/04/18 09:03:21;;;;;;;5.40;2.00;;;487.30;1100.80;;;;;;5031168;28;20080;-58
2022/04/18 09:05:47;;;;;;;3.10;1.88;;;487.30;1075.20;;;;;;5030106;28;20121;-58
2022/04/18 09:08:13;;;;;;;3.75;2.58;;;487.30;1100.80;;;;;;5031446;28;20036;-57
2022/04/18 09:10:41;;;;;;;4.78;2.53;;;486.70;1075.20;;;;;;5031184;28;20053;-59
2022/04/18 09:13:11;;;;;;;2.75;2.00;;;461.20;1152.00;;;;;;5031229;28;20365;-56
2022/04/18 09:15:43;;;;;;;3.55;2.17;;;461.60;1100.80;;;;;;5030870;28;20088;-57
2022/04/18 09:18:17;;;;;;;2.25;1.52;;;461.70;1075.20;;;;;;5030979;28;20065;-63
2022/04/18 09:20:45;;;;;;;3.03;1.90;;;436.00;1100.80;;;;;;5031165;28;20025;-56
2022/04/18 09:23:34;;;;;;;1.73;1.58;;;461.00;1126.40;;;;;;5030885;28;20435;-56
2022/04/18 09:26:08;;;;;;;4.18;2.28;;;461.10;1100.80;;;;;;5031128;28;20017;-68
2022/04/18 09:28:42;;;;;;;5.13;1.63;;;435.90;1126.40;;;;;;5031617;28;20093;-57
2022/04/18 09:31:10;;;;;;;3.25;2.00;;;435.40;1152.00;;;;;;5031227;28;20068;-58
2022/04/18 09:33:38;;;;;;;6.57;4.78;;;436.10;1152.00;;;;;;5031453;28;20372;-56
2022/04/18 09:36:05;;;;;;;3.08;1.73;;;435.50;1152.00;;;;;;5030910;28;20071;-56
2022/04/18 09:38:30;;;;;;;3.45;2.08;;;435.90;1152.00;;;;;;5030919;28;20053;-57
2022/04/18 09:40:56;;;;;;;3.17;1.65;;;436.00;1100.80;;;;;;5031167;28;20394;-59
2022/04/18 09:43:22;;;;;;;2.47;1.85;;;435.70;1126.40;;;;;;5030974;28;20163;-57
2022/04/18 09:45:50;;;;;;;4.78;2.38;;;435.20;1126.40;;;;;;5030675;28;20022;-59
2022/04/18 09:48:16;;;;;;;3.20;2.13;;;435.60;1152.00;;;;;;5031073;28;20025;-70
2022/04/18 09:51:00;;;;;;;6.75;2.05;;;435.70;1126.40;;;;;;5031267;28;20021;-56
2022/04/18 09:53:26;;;;;;;3.13;1.88;;;410.50;1152.00;;;;;;5030437;28;20022;-59
2022/04/18 09:55:53;;;;;;;4.43;2.10;;;410.30;1126.40;;;;;;5030698;28;20040;-56
2022/04/18 09:58:20;;;;;;;6.72;2.70;;;410.40;1126.40;;;;;;5030348;28;20021;-62
2022/04/18 10:00:51;;;;;;;3.80;2.28;;;435.50;1100.80;;;;;;5031545;28;20026;-58
2022/04/18 10:03:18;;;;;;;2.97;1.90;;;410.50;1126.40;;;;;;5031028;28;20025;-64
2022/04/18 10:05:44;;;;;;;3.90;2.20;;;410.50;1177.60;;;;;;5030509;28;20033;-56
2022/04/18 10:08:11;;;;;;;4.18;2.60;;;435.20;1126.40;;;;;;5030246;28;20021;-56
2022/04/18 10:10:41;;;;;;;3.00;1.55;;;435.40;1100.80;;;;;;5030184;28;20040;-54
2022/04/18 10:13:08;;;;;;;2.35;1.40;;;410.50;1126.40;;;;;;5030530;28;20032;-54
2022/04/18 10:15:39;;;;;;;1.75;1.15;;;410.50;1126.40;;;;;;5030642;28;20033;-57
2022/04/18 10:18:07;;;;;;;2.67;1.80;;;410.20;1152.00;;;;;;5030665;28;20026;-58
2022/04/18 10:21:07;;;;;;;2.45;1.58;;;410.30;1152.00;;;;;;5031556;28;20396;-56
2022/04/18 10:23:49;;;;;;;6.55;2.40;;;410.20;1152.00;;;;;;5030564;28;20357;-60
2022/04/18 10:26:22;;;;;;;3.55;2.00;;;410.00;1177.60;;;;;;5030475;28;20136;-57
2022/04/18 10:28:50;;;;;;;4.25;2.33;;;409.90;1177.60;;;;;;5030153;28;20087;-55
2022/04/18 10:31:22;;;;;;;4.13;1.98;;;384.80;1152.00;;;;;;5030220;28;20030;-58
2022/04/18 10:33:49;;;;;;;3.60;2.38;;;384.70;1152.00;;;;;;5029832;28;20384;-57
2022/04/18 10:36:31;;;;;;;3.83;2.30;;;384.70;1177.60;;;;;;5030338;28;20107;-58
2022/04/18 10:39:00;;;;;;;4.28;2.70;;;384.60;1177.60;;;;;;5029999;28;20022;-55
2022/04/18 10:41:37;;;;;;;4.60;2.72;;;384.10;1203.20;;;;;;5030155;28;20029;-56
2022/04/18 10:44:08;;;;;;;3.35;2.13;;;384.30;1228.80;;;;;;5029962;28;20425;-55
2022/04/18 10:46:36;;;;;;;3.92;2.00;;;384.60;1228.80;;;;;;5030114;28;20026;-57
2022/04/18 10:49:04;;;;;;;7.68;4.57;;;384.60;1228.80;;;;;;5029838;28;20106;-55
2022/04/18 10:51:38;;;;;;;3.25;1.90;;;384.30;1254.40;;;;;;5029890;28;20022;-58
2022/04/18 10:54:06;;;;;;;4.10;1.98;;;384.60;1228.80;;;;;;5029805;28;20032;-59
2022/04/18 10:56:57;;;;;;;4.65;2.10;;;384.70;1203.20;;;;;;5029556;28;20044;-60
2022/04/18 10:59:32;;;;;;;3.90;2.78;;;384.60;1203.20;;;;;;5030008;28;20100;-57
2022/04/18 11:02:01;;;;;;;2.80;1.63;;;384.30;1203.20;;;;;;5029759;28;20033;-57
2022/04/18 11:04:39;;;;;;;1.95;1.60;;;384.30;1203.20;;;;;;5029700;28;20029;-56
2022/04/18 11:07:07;;;;;;;4.32;2.22;;;384.50;1203.20;;;;;;5029876;28;20072;-57
2022/04/18 11:09:37;;;;;;;8.73;2.53;;;384.40;1177.60;;;;;;5030183;28;20024;-56
2022/04/18 11:12:10;;;;;;;4.50;2.17;;;384.30;1203.20;;;;;;5033787;28;20025;-55
2022/04/18 11:14:38;;;;;;;3.38;1.30;;;384.30;1177.60;;;;;;5033641;28;20414;-56
2022/04/18 11:17:05;;;;;;;2.97;1.52;;;384.30;1152.00;;;;;;5033597;28;20072;-57
2022/04/18 11:19:36;;;;;;;3.65;2.10;;;384.10;1152.00;;;;;;5033392;28;20074;-56
2022/04/18 11:22:04;;;;;;;4.43;2.42;;;384.10;1177.60;;;;;;5033560;28;20021;-57
2022/04/18 11:24:38;;;;;;;4.07;2.20;;;384.20;1177.60;;;;;;5033081;28;20059;-58
2022/04/18 11:27:13;;;;;;;2.38;1.38;;;384.40;1152.00;;;;;;5033451;28;20064;-58
2022/04/18 11:29:44;;;;;;;3.95;1.45;;;384.60;1126.40;;;;;;5033173;28;20112;-57
2022/04/18 11:32:14;;;;;;;2.80;1.88;;;384.50;1152.00;;;;;;5033064;28;20029;-58
2022/04/18 11:34:43;;;;;;;3.88;1.65;;;384.30;1152.00;;;;;;5032664;28;20098;-58
2022/04/18 11:37:10;;;;;;;3.50;2.40;;;384.60;1177.60;;;;;;5032863;28;20045;-55
2022/04/18 11:39:44;;;;;;;5.03;2.40;;;384.60;1100.80;;;;;;5033117;28;20472;-56
2022/04/18 11:42:15;;;;;;;3.97;1.75;;;384.80;1100.80;;;;;;5032994;28;20061;-59
2022/04/18 11:44:42;;;;;;;2.45;1.40;;;409.90;1126.40;;;;;;5032719;28;20415;-57
2022/04/18 11:47:26;;;;;;;3.60;2.10;;;410.20;1075.20;;;;;;5032808;28;20105;-59
2022/04/18 11:50:00;;;;;;;5.05;3.40;;;435.30;1100.80;;;;;;5032701;28;20510;-59
2022/04/18 11:52:28;;;;;;;2.53;1.50;;;435.60;1049.60;;;;;;5033257;28;20029;-57
2022/04/18 11:54:54;;;;;;;1.95;1.77;;;435.70;1100.80;;;;;;5032706;28;20029;-56
2022/04/18 11:57:20;;;;;;;0.55;0.55;;;460.80;1024.00;;;;;;5032559;28;20480;-57
2022/04/18 11:59:49;;;;;;;2.00;1.38;;;436.10;1024.00;;;;;;5032889;28;20026;-58
2022/04/18 12:07:46;;;;;;;4.03;1.67;;;436.00;972.80;;;;;;5032569;28;20499;-54
2022/04/18 12:10:24;;;;;;;2.63;1.48;;;435.90;998.40;;;;;;5032200;28;20037;-55
2022/04/18 12:12:50;;;;;;;4.22;2.30;;;435.30;1024.00;;;;;;5031756;28;20013;-57
2022/04/18 12:15:19;;;;;;;6.50;2.45;;;410.20;1075.20;;;;;;5031967;28;20112;-57
2022/04/18 12:17:46;;;;;;;5.68;2.60;;;384.70;1100.80;;;;;;5032285;28;20032;-59
2022/04/18 12:20:42;;;;;;;4.85;2.72;;;384.30;1152.00;;;;;;5031842;28;20029;-57
2022/04/18 12:23:09;;;;;;;2.88;1.70;;;384.10;1152.00;;;;;;5031271;28;20105;-56
2022/04/18 12:25:35;;;;;;;5.47;2.80;;;359.30;1152.00;;;;;;5032265;28;20052;-56
2022/04/18 12:28:04;;;;;;;3.22;1.83;;;358.90;1152.00;;;;;;5032086;28;20488;-58
2022/04/18 12:30:30;;;;;;;4.18;2.35;;;359.00;1152.00;;;;;;5032045;28;20053;-57
2022/04/18 12:33:13;;;;;;;3.08;1.30;;;359.10;1152.00;;;;;;5032052;28;20064;-58
2022/04/18 12:35:41;;;;;;;2.80;1.92;;;359.10;1152.00;;;;;;5031858;28;20072;-57
2022/04/18 12:38:09;;;;;;;4.25;2.55;;;359.10;1152.00;;;;;;5032009;28;20108;-56
2022/04/18 12:40:46;;;;;;;4.68;2.15;;;359.20;1152.00;;;;;;5031738;28;20082;-58
2022/04/18 12:43:17;;;;;;;3.95;2.20;;;384.00;1126.40;;;;;;5032006;28;20036;-57